sensor_id;sensor_type;location;lat;lon;timestamp;P1;durP1;ratioP1;P2;durP2;ratioP2
11425;SDS011;5769;47.998;7.788;2022-10-16T00:01:12;267.80;;;43.30;;
11425;SDS011;5769;47.998;7.788;2022-10-16T00:03:42;267.67;;;43.30;;
11425;SDS011;5769;47.998;7.788;2022-10-16T00:06:10;267.63;;;43.40;;
11425;SDS011;5769;47.998;7.788;2022-10-16T00:08:37;267.67;;;43.13;;
11425;SDS011;5769;47.998;7.788;2022-10-16T00:11:06;255.80;;;43.20;;
11425;SDS011;5769;47.998;7.788;2022-10-16T00:13:34;223.80;;;39.90;;
11425;SDS011;5769;47.998;7.788;2022-10-16T00:16:03;265.23;;;43.20;;
11425;SDS011;5769;47.998;7.788;2022-10-16T00:18:30;274.63;;;44.27;;
11425;SDS011;5769;47.998;7.788;2022-10-16T00:21:02;273.77;;;43.90;;
11425;SDS011;5769;47.998;7.788;2022-10-16T00:23:30;270.13;;;43.77;;
11425;SDS011;5769;47.998;7.788;2022-10-16T00:25:58;269.63;;;43.50;;
11425;SDS011;5769;47.998;7.788;2022-10-16T00:28:26;278.20;;;44.20;;
11425;SDS011;5769;47.998;7.788;2022-10-16T00:30:52;278.40;;;44.20;;
11425;SDS011;5769;47.998;7.788;2022-10-16T00:33:19;278.87;;;44.50;;
11425;SDS011;5769;47.998;7.788;2022-10-16T00:35:46;274.10;;;43.70;;
11425;SDS011;5769;47.998;7.788;2022-10-16T00:38:14;275.43;;;44.23;;
11425;SDS011;5769;47.998;7.788;2022-10-16T00:40:41;273.70;;;43.67;;
11425;SDS011;5769;47.998;7.788;2022-10-16T00:43:11;275.50;;;44.40;;
11425;SDS011;5769;47.998;7.788;2022-10-16T00:45:40;266.33;;;43.43;;
11425;SDS011;5769;47.998;7.788;2022-10-16T00:48:07;258.90;;;43.17;;
11425;SDS011;5769;47.998;7.788;2022-10-16T00:50:39;270.30;;;43.90;;
11425;SDS011;5769;47.998;7.788;2022-10-16T00:53:08;278.00;;;44.10;;
11425;SDS011;5769;47.998;7.788;2022-10-16T00:55:37;275.53;;;44.00;;
11425;SDS011;5769;47.998;7.788;2022-10-16T00:58:04;276.00;;;44.27;;
11425;SDS011;5769;47.998;7.788;2022-10-16T01:00:31;276.30;;;44.23;;
11425;SDS011;5769;47.998;7.788;2022-10-16T01:02:58;276.33;;;44.03;;
11425;SDS011;5769;47.998;7.788;2022-10-16T01:05:27;278.70;;;44.17;;
11425;SDS011;5769;47.998;7.788;2022-10-16T01:08:01;277.80;;;44.07;;
11425;SDS011;5769;47.998;7.788;2022-10-16T01:10:35;277.10;;;44.30;;
11425;SDS011;5769;47.998;7.788;2022-10-16T01:13:07;276.70;;;44.20;;
11425;SDS011;5769;47.998;7.788;2022-10-16T01:15:37;277.80;;;44.37;;
11425;SDS011;5769;47.998;7.788;2022-10-16T01:18:08;278.50;;;44.30;;
11425;SDS011;5769;47.998;7.788;2022-10-16T01:20:40;279.60;;;44.47;;
11425;SDS011;5769;47.998;7.788;2022-10-16T01:23:19;280.97;;;44.20;;
11425;SDS011;5769;47.998;7.788;2022-10-16T01:25:58;280.20;;;44.10;;
11425;SDS011;5769;47.998;7.788;2022-10-16T01:28:38;277.97;;;44.30;;
11425;SDS011;5769;47.998;7.788;2022-10-16T01:31:11;279.53;;;44.53;;
11425;SDS011;5769;47.998;7.788;2022-10-16T01:36:15;278.77;;;44.23;;
11425;SDS011;5769;47.998;7.788;2022-10-16T01:38:46;277.87;;;44.17;;
11425;SDS011;5769;47.998;7.788;2022-10-16T01:41:16;278.13;;;44.03;;
11425;SDS011;5769;47.998;7.788;2022-10-16T01:43:48;277.43;;;44.23;;
11425;SDS011;5769;47.998;7.788;2022-10-16T01:46:19;277.87;;;44.10;;
11425;SDS011;5769;47.998;7.788;2022-10-16T01:48:47;279.07;;;44.47;;
11425;SDS011;5769;47.998;7.788;2022-10-16T01:51:15;278.37;;;44.40;;
11425;SDS011;5769;47.998;7.788;2022-10-16T01:53:49;277.43;;;44.33;;
11425;SDS011;5769;47.998;7.788;2022-10-16T01:56:19;277.47;;;44.33;;
11425;SDS011;5769;47.998;7.788;2022-10-16T01:58:50;274.93;;;43.93;;
11425;SDS011;5769;47.998;7.788;2022-10-16T02:01:20;276.13;;;44.13;;
11425;SDS011;5769;47.998;7.788;2022-10-16T02:03:49;274.63;;;43.83;;
11425;SDS011;5769;47.998;7.788;2022-10-16T02:06:19;276.33;;;44.17;;
11425;SDS011;5769;47.998;7.788;2022-10-16T02:08:46;274.07;;;43.70;;
11425;SDS011;5769;47.998;7.788;2022-10-16T02:11:13;274.73;;;44.13;;
11425;SDS011;5769;47.998;7.788;2022-10-16T02:13:41;278.80;;;44.23;;
11425;SDS011;5769;47.998;7.788;2022-10-16T02:16:12;277.47;;;44.30;;
11425;SDS011;5769;47.998;7.788;2022-10-16T02:18:39;275.73;;;44.10;;
11425;SDS011;5769;47.998;7.788;2022-10-16T02:21:10;275.57;;;44.13;;
11425;SDS011;5769;47.998;7.788;2022-10-16T02:23:44;274.53;;;44.00;;
11425;SDS011;5769;47.998;7.788;2022-10-16T02:26:20;278.60;;;44.47;;
11425;SDS011;5769;47.998;7.788;2022-10-16T02:28:57;275.53;;;43.80;;
11425;SDS011;5769;47.998;7.788;2022-10-16T02:31:31;274.43;;;44.03;;
11425;SDS011;5769;47.998;7.788;2022-10-16T02:34:02;272.70;;;43.37;;
11425;SDS011;5769;47.998;7.788;2022-10-16T02:36:30;275.37;;;44.27;;
11425;SDS011;5769;47.998;7.788;2022-10-16T02:38:58;274.37;;;44.10;;
11425;SDS011;5769;47.998;7.788;2022-10-16T02:41:26;275.20;;;43.93;;
11425;SDS011;5769;47.998;7.788;2022-10-16T02:43:53;270.80;;;43.50;;
11425;SDS011;5769;47.998;7.788;2022-10-16T02:46:20;269.37;;;43.60;;
11425;SDS011;5769;47.998;7.788;2022-10-16T02:48:49;271.30;;;43.83;;
11425;SDS011;5769;47.998;7.788;2022-10-16T02:51:16;269.00;;;43.50;;
11425;SDS011;5769;47.998;7.788;2022-10-16T02:53:42;270.20;;;43.57;;
11425;SDS011;5769;47.998;7.788;2022-10-16T02:56:09;268.27;;;43.47;;
11425;SDS011;5769;47.998;7.788;2022-10-16T02:58:36;268.03;;;43.53;;
11425;SDS011;5769;47.998;7.788;2022-10-16T03:01:03;269.07;;;43.50;;
11425;SDS011;5769;47.998;7.788;2022-10-16T03:03:29;270.47;;;43.83;;
11425;SDS011;5769;47.998;7.788;2022-10-16T03:05:57;266.73;;;43.27;;
11425;SDS011;5769;47.998;7.788;2022-10-16T03:08:24;265.47;;;43.10;;
11425;SDS011;5769;47.998;7.788;2022-10-16T03:10:51;262.87;;;42.80;;
11425;SDS011;5769;47.998;7.788;2022-10-16T03:13:18;259.13;;;43.13;;
11425;SDS011;5769;47.998;7.788;2022-10-16T03:15:46;262.23;;;42.90;;
11425;SDS011;5769;47.998;7.788;2022-10-16T03:18:13;267.27;;;43.43;;
11425;SDS011;5769;47.998;7.788;2022-10-16T03:20:40;283.77;;;44.63;;
11425;SDS011;5769;47.998;7.788;2022-10-16T03:23:08;278.63;;;44.33;;
11425;SDS011;5769;47.998;7.788;2022-10-16T03:25:35;276.73;;;44.33;;
11425;SDS011;5769;47.998;7.788;2022-10-16T03:28:01;271.37;;;43.77;;
11425;SDS011;5769;47.998;7.788;2022-10-16T03:30:29;286.57;;;44.63;;
11425;SDS011;5769;47.998;7.788;2022-10-16T03:32:56;285.97;;;44.70;;
11425;SDS011;5769;47.998;7.788;2022-10-16T03:35:23;286.43;;;44.53;;
11425;SDS011;5769;47.998;7.788;2022-10-16T03:37:50;285.40;;;44.60;;
11425;SDS011;5769;47.998;7.788;2022-10-16T03:40:18;285.37;;;44.63;;
11425;SDS011;5769;47.998;7.788;2022-10-16T03:42:45;284.87;;;44.50;;
11425;SDS011;5769;47.998;7.788;2022-10-16T03:45:11;280.63;;;44.23;;
11425;SDS011;5769;47.998;7.788;2022-10-16T03:47:38;279.80;;;44.33;;
11425;SDS011;5769;47.998;7.788;2022-10-16T03:50:05;270.90;;;43.77;;
11425;SDS011;5769;47.998;7.788;2022-10-16T03:52:33;282.27;;;44.70;;
11425;SDS011;5769;47.998;7.788;2022-10-16T03:55:00;280.30;;;44.40;;
11425;SDS011;5769;47.998;7.788;2022-10-16T03:57:28;281.97;;;44.60;;
11425;SDS011;5769;47.998;7.788;2022-10-16T03:59:54;280.47;;;44.43;;
11425;SDS011;5769;47.998;7.788;2022-10-16T04:02:21;280.83;;;44.60;;
11425;SDS011;5769;47.998;7.788;2022-10-16T04:04:48;280.80;;;44.83;;
11425;SDS011;5769;47.998;7.788;2022-10-16T04:07:15;282.53;;;44.83;;
11425;SDS011;5769;47.998;7.788;2022-10-16T04:09:42;282.90;;;44.90;;
11425;SDS011;5769;47.998;7.788;2022-10-16T04:12:11;280.63;;;44.17;;
11425;SDS011;5769;47.998;7.788;2022-10-16T04:14:39;280.43;;;44.37;;
11425;SDS011;5769;47.998;7.788;2022-10-16T04:17:06;281.50;;;44.60;;
11425;SDS011;5769;47.998;7.788;2022-10-16T04:19:32;282.03;;;44.80;;
11425;SDS011;5769;47.998;7.788;2022-10-16T04:21:59;281.33;;;44.70;;
11425;SDS011;5769;47.998;7.788;2022-10-16T04:24:26;281.17;;;44.80;;
11425;SDS011;5769;47.998;7.788;2022-10-16T04:26:53;280.17;;;44.60;;
11425;SDS011;5769;47.998;7.788;2022-10-16T04:29:19;280.53;;;44.50;;
11425;SDS011;5769;47.998;7.788;2022-10-16T04:31:48;281.33;;;44.83;;
11425;SDS011;5769;47.998;7.788;2022-10-16T04:34:15;280.23;;;44.67;;
11425;SDS011;5769;47.998;7.788;2022-10-16T04:36:42;279.93;;;44.50;;
11425;SDS011;5769;47.998;7.788;2022-10-16T04:39:09;277.40;;;44.20;;
11425;SDS011;5769;47.998;7.788;2022-10-16T04:41:36;277.60;;;44.37;;
11425;SDS011;5769;47.998;7.788;2022-10-16T04:44:02;278.13;;;44.30;;
11425;SDS011;5769;47.998;7.788;2022-10-16T04:46:29;278.27;;;44.37;;
11425;SDS011;5769;47.998;7.788;2022-10-16T04:48:57;276.83;;;44.23;;
11425;SDS011;5769;47.998;7.788;2022-10-16T04:51:24;277.80;;;44.23;;
11425;SDS011;5769;47.998;7.788;2022-10-16T04:53:52;278.37;;;44.53;;
11425;SDS011;5769;47.998;7.788;2022-10-16T04:56:19;275.90;;;44.00;;
11425;SDS011;5769;47.998;7.788;2022-10-16T04:58:47;276.63;;;44.20;;
11425;SDS011;5769;47.998;7.788;2022-10-16T05:01:13;277.00;;;44.10;;
11425;SDS011;5769;47.998;7.788;2022-10-16T05:03:40;276.73;;;44.40;;
11425;SDS011;5769;47.998;7.788;2022-10-16T05:06:09;276.83;;;44.37;;
11425;SDS011;5769;47.998;7.788;2022-10-16T05:08:36;277.50;;;44.50;;
11425;SDS011;5769;47.998;7.788;2022-10-16T05:11:03;275.83;;;44.20;;
11425;SDS011;5769;47.998;7.788;2022-10-16T05:13:30;274.37;;;44.20;;
11425;SDS011;5769;47.998;7.788;2022-10-16T05:15:56;273.17;;;43.93;;
11425;SDS011;5769;47.998;7.788;2022-10-16T05:18:23;272.63;;;43.90;;
11425;SDS011;5769;47.998;7.788;2022-10-16T05:20:50;270.93;;;43.73;;
11425;SDS011;5769;47.998;7.788;2022-10-16T05:23:18;264.57;;;43.20;;
11425;SDS011;5769;47.998;7.788;2022-10-16T05:25:51;263.63;;;42.87;;
11425;SDS011;5769;47.998;7.788;2022-10-16T05:28:19;266.97;;;43.33;;
11425;SDS011;5769;47.998;7.788;2022-10-16T05:30:46;274.70;;;43.77;;
11425;SDS011;5769;47.998;7.788;2022-10-16T05:33:13;282.00;;;44.47;;
11425;SDS011;5769;47.998;7.788;2022-10-16T05:35:39;282.53;;;44.50;;
11425;SDS011;5769;47.998;7.788;2022-10-16T05:38:06;287.60;;;44.80;;
11425;SDS011;5769;47.998;7.788;2022-10-16T05:40:34;286.77;;;44.63;;
11425;SDS011;5769;47.998;7.788;2022-10-16T05:43:01;285.40;;;44.77;;
11425;SDS011;5769;47.998;7.788;2022-10-16T05:45:28;281.70;;;44.63;;
11425;SDS011;5769;47.998;7.788;2022-10-16T05:47:54;279.13;;;44.63;;
11425;SDS011;5769;47.998;7.788;2022-10-16T05:50:21;267.63;;;43.40;;
11425;SDS011;5769;47.998;7.788;2022-10-16T05:52:48;262.97;;;43.17;;
11425;SDS011;5769;47.998;7.788;2022-10-16T05:55:14;284.13;;;44.60;;
11425;SDS011;5769;47.998;7.788;2022-10-16T05:57:42;274.13;;;43.90;;
11425;SDS011;5769;47.998;7.788;2022-10-16T06:00:10;288.20;;;44.27;;
11425;SDS011;5769;47.998;7.788;2022-10-16T06:02:37;287.87;;;44.77;;
11425;SDS011;5769;47.998;7.788;2022-10-16T06:05:04;264.07;;;43.20;;
11425;SDS011;5769;47.998;7.788;2022-10-16T06:07:33;265.50;;;43.20;;
11425;SDS011;5769;47.998;7.788;2022-10-16T06:10:00;264.70;;;43.10;;
11425;SDS011;5769;47.998;7.788;2022-10-16T06:12:27;265.40;;;43.33;;
11425;SDS011;5769;47.998;7.788;2022-10-16T06:14:55;263.13;;;42.83;;
11425;SDS011;5769;47.998;7.788;2022-10-16T06:17:22;264.87;;;43.03;;
11425;SDS011;5769;47.998;7.788;2022-10-16T06:19:49;262.27;;;42.90;;
11425;SDS011;5769;47.998;7.788;2022-10-16T06:22:15;263.37;;;43.10;;
11425;SDS011;5769;47.998;7.788;2022-10-16T06:24:42;262.73;;;42.80;;
11425;SDS011;5769;47.998;7.788;2022-10-16T06:27:09;272.77;;;43.87;;
11425;SDS011;5769;47.998;7.788;2022-10-16T06:29:35;262.50;;;42.80;;
11425;SDS011;5769;47.998;7.788;2022-10-16T06:32:04;263.10;;;42.80;;
11425;SDS011;5769;47.998;7.788;2022-10-16T06:34:30;261.40;;;43.10;;
11425;SDS011;5769;47.998;7.788;2022-10-16T06:36:57;258.93;;;43.37;;
11425;SDS011;5769;47.998;7.788;2022-10-16T06:39:24;258.93;;;43.40;;
11425;SDS011;5769;47.998;7.788;2022-10-16T06:41:50;263.07;;;43.53;;
11425;SDS011;5769;47.998;7.788;2022-10-16T06:44:17;257.30;;;43.07;;
11425;SDS011;5769;47.998;7.788;2022-10-16T06:46:44;256.33;;;43.37;;
11425;SDS011;5769;47.998;7.788;2022-10-16T06:49:12;256.03;;;43.43;;
11425;SDS011;5769;47.998;7.788;2022-10-16T06:51:40;256.20;;;43.30;;
11425;SDS011;5769;47.998;7.788;2022-10-16T06:54:07;255.23;;;43.50;;
11425;SDS011;5769;47.998;7.788;2022-10-16T06:56:34;253.77;;;43.53;;
11425;SDS011;5769;47.998;7.788;2022-10-16T06:59:01;256.67;;;43.73;;
11425;SDS011;5769;47.998;7.788;2022-10-16T07:01:28;288.75;;;44.10;;
11425;SDS011;5769;47.998;7.788;2022-10-16T07:03:55;297.90;;;44.40;;
11425;SDS011;5769;47.998;7.788;2022-10-16T07:06:26;297.30;;;44.55;;
11425;SDS011;5769;47.998;7.788;2022-10-16T07:08:58;298.10;;;44.70;;
11425;SDS011;5769;47.998;7.788;2022-10-16T07:11:28;301.00;;;45.80;;
11425;SDS011;5769;47.998;7.788;2022-10-16T07:13:55;302.70;;;47.70;;
11425;SDS011;5769;47.998;7.788;2022-10-16T07:16:22;302.10;;;45.70;;
11425;SDS011;5769;47.998;7.788;2022-10-16T07:18:50;298.00;;;44.40;;
11425;SDS011;5769;47.998;7.788;2022-10-16T07:26:18;302.60;;;47.80;;
11425;SDS011;5769;47.998;7.788;2022-10-16T07:28:45;289.40;;;45.50;;
11425;SDS011;5769;47.998;7.788;2022-10-16T07:31:12;260.73;;;43.20;;
11425;SDS011;5769;47.998;7.788;2022-10-16T07:33:40;265.73;;;43.83;;
11425;SDS011;5769;47.998;7.788;2022-10-16T07:36:09;269.13;;;43.50;;
11425;SDS011;5769;47.998;7.788;2022-10-16T07:38:38;260.50;;;43.37;;
11425;SDS011;5769;47.998;7.788;2022-10-16T08:00:43;303.30;;;46.80;;
11425;SDS011;5769;47.998;7.788;2022-10-16T08:03:10;303.60;;;48.00;;
11425;SDS011;5769;47.998;7.788;2022-10-16T08:05:37;285.13;;;44.80;;
11425;SDS011;5769;47.998;7.788;2022-10-16T08:08:03;258.73;;;42.80;;
11425;SDS011;5769;47.998;7.788;2022-10-16T08:10:30;255.37;;;43.27;;
11425;SDS011;5769;47.998;7.788;2022-10-16T08:12:58;259.40;;;43.03;;
11425;SDS011;5769;47.998;7.788;2022-10-16T08:15:25;263.87;;;43.37;;
11425;SDS011;5769;47.998;7.788;2022-10-16T08:17:55;264.70;;;43.50;;
11425;SDS011;5769;47.998;7.788;2022-10-16T08:20:22;264.37;;;43.13;;
11425;SDS011;5769;47.998;7.788;2022-10-16T08:22:49;263.23;;;43.10;;
11425;SDS011;5769;47.998;7.788;2022-10-16T08:25:16;263.33;;;43.27;;
11425;SDS011;5769;47.998;7.788;2022-10-16T08:27:43;261.97;;;43.20;;
11425;SDS011;5769;47.998;7.788;2022-10-16T08:30:11;264.60;;;43.33;;
11425;SDS011;5769;47.998;7.788;2022-10-16T08:32:38;272.77;;;43.83;;
11425;SDS011;5769;47.998;7.788;2022-10-16T08:35:06;280.53;;;44.30;;
11425;SDS011;5769;47.998;7.788;2022-10-16T08:37:34;307.00;;;59.60;;
11425;SDS011;5769;47.998;7.788;2022-10-16T08:40:01;302.87;;;47.00;;
11425;SDS011;5769;47.998;7.788;2022-10-16T08:42:34;300.67;;;45.17;;
11425;SDS011;5769;47.998;7.788;2022-10-16T08:45:23;298.47;;;44.43;;
11425;SDS011;5769;47.998;7.788;2022-10-16T08:48:02;298.40;;;44.35;;
11425;SDS011;5769;47.998;7.788;2022-10-16T08:50:38;303.65;;;45.80;;
11425;SDS011;5769;47.998;7.788;2022-10-16T08:53:06;298.10;;;44.83;;
11425;SDS011;5769;47.998;7.788;2022-10-16T08:55:38;290.50;;;44.37;;
11425;SDS011;5769;47.998;7.788;2022-10-16T08:58:10;282.15;;;44.20;;
11425;SDS011;5769;47.998;7.788;2022-10-16T09:00:40;263.53;;;43.20;;
11425;SDS011;5769;47.998;7.788;2022-10-16T09:03:11;262.63;;;43.27;;
11425;SDS011;5769;47.998;7.788;2022-10-16T09:08:38;292.10;;;45.23;;
11425;SDS011;5769;47.998;7.788;2022-10-16T09:11:14;252.67;;;42.33;;
11425;SDS011;5769;47.998;7.788;2022-10-16T09:13:48;267.83;;;43.53;;
11425;SDS011;5769;47.998;7.788;2022-10-16T09:16:21;263.10;;;42.83;;
11425;SDS011;5769;47.998;7.788;2022-10-16T09:18:55;263.73;;;43.17;;
11425;SDS011;5769;47.998;7.788;2022-10-16T09:21:28;263.33;;;43.10;;
11425;SDS011;5769;47.998;7.788;2022-10-16T09:23:57;261.10;;;42.93;;
11425;SDS011;5769;47.998;7.788;2022-10-16T09:26:25;263.03;;;43.40;;
11425;SDS011;5769;47.998;7.788;2022-10-16T09:28:52;262.57;;;43.10;;
11425;SDS011;5769;47.998;7.788;2022-10-16T09:31:21;265.97;;;43.37;;
11425;SDS011;5769;47.998;7.788;2022-10-16T09:33:50;262.17;;;43.07;;
11425;SDS011;5769;47.998;7.788;2022-10-16T09:36:20;262.20;;;42.87;;
11425;SDS011;5769;47.998;7.788;2022-10-16T09:38:47;278.47;;;44.37;;
11425;SDS011;5769;47.998;7.788;2022-10-16T09:41:16;287.70;;;44.67;;
11425;SDS011;5769;47.998;7.788;2022-10-16T09:43:48;295.20;;;44.40;;
11425;SDS011;5769;47.998;7.788;2022-10-16T09:46:24;296.80;;;44.40;;
11425;SDS011;5769;47.998;7.788;2022-10-16T09:48:54;262.97;;;43.30;;
11425;SDS011;5769;47.998;7.788;2022-10-16T09:51:24;262.63;;;43.60;;
11425;SDS011;5769;47.998;7.788;2022-10-16T09:53:56;258.80;;;43.37;;
11425;SDS011;5769;47.998;7.788;2022-10-16T09:56:25;254.07;;;43.30;;
11425;SDS011;5769;47.998;7.788;2022-10-16T09:58:54;222.77;;;40.93;;
11425;SDS011;5769;47.998;7.788;2022-10-16T10:01:25;153.97;;;34.53;;
11425;SDS011;5769;47.998;7.788;2022-10-16T10:03:55;247.30;;;43.40;;
11425;SDS011;5769;47.998;7.788;2022-10-16T10:06:26;246.13;;;43.47;;
11425;SDS011;5769;47.998;7.788;2022-10-16T10:08:56;149.47;;;35.00;;
11425;SDS011;5769;47.998;7.788;2022-10-16T10:11:37;226.50;;;40.40;;
11425;SDS011;5769;47.998;7.788;2022-10-16T10:14:13;179.07;;;35.20;;
11425;SDS011;5769;47.998;7.788;2022-10-16T10:16:45;164.43;;;33.30;;
11425;SDS011;5769;47.998;7.788;2022-10-16T10:19:13;167.70;;;33.63;;
11425;SDS011;5769;47.998;7.788;2022-10-16T10:21:42;147.70;;;35.30;;
11425;SDS011;5769;47.998;7.788;2022-10-16T10:24:10;164.57;;;32.70;;
11425;SDS011;5769;47.998;7.788;2022-10-16T10:26:38;203.70;;;36.10;;
11425;SDS011;5769;47.998;7.788;2022-10-16T10:29:12;204.10;;;36.87;;
11425;SDS011;5769;47.998;7.788;2022-10-16T10:31:50;161.80;;;33.07;;
11425;SDS011;5769;47.998;7.788;2022-10-16T10:34:40;164.23;;;33.93;;
11425;SDS011;5769;47.998;7.788;2022-10-16T10:37:26;161.50;;;33.47;;
11425;SDS011;5769;47.998;7.788;2022-10-16T10:40:02;216.43;;;38.30;;
11425;SDS011;5769;47.998;7.788;2022-10-16T10:42:39;178.13;;;34.77;;
11425;SDS011;5769;47.998;7.788;2022-10-16T10:45:16;160.57;;;30.90;;
11425;SDS011;5769;47.998;7.788;2022-10-16T10:47:50;163.27;;;32.53;;
11425;SDS011;5769;47.998;7.788;2022-10-16T10:50:26;193.80;;;34.93;;
11425;SDS011;5769;47.998;7.788;2022-10-16T10:53:02;235.93;;;41.40;;
11425;SDS011;5769;47.998;7.788;2022-10-16T10:55:39;206.20;;;36.67;;
11425;SDS011;5769;47.998;7.788;2022-10-16T10:58:15;227.20;;;40.07;;
11425;SDS011;5769;47.998;7.788;2022-10-16T11:01:02;173.47;;;31.37;;
11425;SDS011;5769;47.998;7.788;2022-10-16T11:03:46;185.00;;;34.33;;
11425;SDS011;5769;47.998;7.788;2022-10-16T11:06:26;175.40;;;34.10;;
11425;SDS011;5769;47.998;7.788;2022-10-16T11:09:00;159.27;;;33.07;;
11425;SDS011;5769;47.998;7.788;2022-10-16T11:11:34;160.50;;;33.23;;
11425;SDS011;5769;47.998;7.788;2022-10-16T11:14:10;158.60;;;32.23;;
11425;SDS011;5769;47.998;7.788;2022-10-16T11:16:42;192.90;;;36.83;;
11425;SDS011;5769;47.998;7.788;2022-10-16T11:19:14;246.47;;;43.03;;
11425;SDS011;5769;47.998;7.788;2022-10-16T11:21:55;246.17;;;43.33;;
11425;SDS011;5769;47.998;7.788;2022-10-16T11:24:29;247.17;;;43.43;;
11425;SDS011;5769;47.998;7.788;2022-10-16T11:27:04;249.83;;;43.80;;
11425;SDS011;5769;47.998;7.788;2022-10-16T11:29:35;249.37;;;43.80;;
11425;SDS011;5769;47.998;7.788;2022-10-16T11:32:12;249.87;;;43.60;;
11425;SDS011;5769;47.998;7.788;2022-10-16T11:34:51;248.40;;;43.53;;
11425;SDS011;5769;47.998;7.788;2022-10-16T11:37:23;252.03;;;44.00;;
11425;SDS011;5769;47.998;7.788;2022-10-16T11:39:54;248.00;;;43.43;;
11425;SDS011;5769;47.998;7.788;2022-10-16T11:42:27;249.60;;;43.77;;
11425;SDS011;5769;47.998;7.788;2022-10-16T11:45:00;250.90;;;43.63;;
11425;SDS011;5769;47.998;7.788;2022-10-16T11:47:35;250.00;;;43.33;;
11425;SDS011;5769;47.998;7.788;2022-10-16T11:50:12;248.17;;;43.70;;
11425;SDS011;5769;47.998;7.788;2022-10-16T11:52:48;247.33;;;43.37;;
11425;SDS011;5769;47.998;7.788;2022-10-16T11:55:20;247.47;;;43.50;;
11425;SDS011;5769;47.998;7.788;2022-10-16T11:57:51;247.27;;;43.30;;
11425;SDS011;5769;47.998;7.788;2022-10-16T12:00:23;245.10;;;43.30;;
11425;SDS011;5769;47.998;7.788;2022-10-16T12:02:55;247.40;;;43.47;;
11425;SDS011;5769;47.998;7.788;2022-10-16T12:05:33;248.23;;;43.57;;
11425;SDS011;5769;47.998;7.788;2022-10-16T12:08:13;249.70;;;43.47;;
11425;SDS011;5769;47.998;7.788;2022-10-16T12:10:41;249.03;;;43.60;;
11425;SDS011;5769;47.998;7.788;2022-10-16T12:13:29;230.87;;;41.10;;
11425;SDS011;5769;47.998;7.788;2022-10-16T12:18:47;248.40;;;43.40;;
11425;SDS011;5769;47.998;7.788;2022-10-16T12:21:16;246.47;;;43.47;;
11425;SDS011;5769;47.998;7.788;2022-10-16T12:23:47;247.37;;;43.37;;
11425;SDS011;5769;47.998;7.788;2022-10-16T12:26:23;249.03;;;43.47;;
11425;SDS011;5769;47.998;7.788;2022-10-16T12:28:51;246.00;;;43.30;;
11425;SDS011;5769;47.998;7.788;2022-10-16T12:31:19;245.13;;;42.83;;
11425;SDS011;5769;47.998;7.788;2022-10-16T12:33:55;242.17;;;42.60;;
11425;SDS011;5769;47.998;7.788;2022-10-16T12:36:30;248.07;;;43.37;;
11425;SDS011;5769;47.998;7.788;2022-10-16T12:39:02;248.53;;;43.57;;
11425;SDS011;5769;47.998;7.788;2022-10-16T12:41:30;247.77;;;43.70;;
11425;SDS011;5769;47.998;7.788;2022-10-16T12:44:02;247.93;;;43.30;;
11425;SDS011;5769;47.998;7.788;2022-10-16T12:46:37;227.37;;;40.60;;
11425;SDS011;5769;47.998;7.788;2022-10-16T12:49:20;180.53;;;36.43;;
11425;SDS011;5769;47.998;7.788;2022-10-16T12:51:51;183.60;;;35.23;;
11425;SDS011;5769;47.998;7.788;2022-10-16T12:54:20;169.57;;;34.37;;
11425;SDS011;5769;47.998;7.788;2022-10-16T12:56:57;165.37;;;32.73;;
11425;SDS011;5769;47.998;7.788;2022-10-16T12:59:37;169.63;;;33.00;;
11425;SDS011;5769;47.998;7.788;2022-10-16T13:02:27;166.17;;;33.67;;
11425;SDS011;5769;47.998;7.788;2022-10-16T13:05:18;187.73;;;34.53;;
11425;SDS011;5769;47.998;7.788;2022-10-16T13:07:59;177.57;;;34.03;;
11425;SDS011;5769;47.998;7.788;2022-10-16T13:10:39;168.93;;;34.13;;
11425;SDS011;5769;47.998;7.788;2022-10-16T13:13:18;177.37;;;34.97;;
11425;SDS011;5769;47.998;7.788;2022-10-16T13:16:02;160.33;;;32.37;;
11425;SDS011;5769;47.998;7.788;2022-10-16T13:18:36;160.93;;;33.93;;
11425;SDS011;5769;47.998;7.788;2022-10-16T13:21:16;159.60;;;33.50;;
11425;SDS011;5769;47.998;7.788;2022-10-16T13:23:53;245.63;;;43.20;;
11425;SDS011;5769;47.998;7.788;2022-10-16T13:26:28;228.07;;;40.53;;
11425;SDS011;5769;47.998;7.788;2022-10-16T13:29:03;228.33;;;40.40;;
11425;SDS011;5769;47.998;7.788;2022-10-16T13:31:30;158.43;;;32.70;;
11425;SDS011;5769;47.998;7.788;2022-10-16T13:34:01;159.57;;;33.20;;
11425;SDS011;5769;47.998;7.788;2022-10-16T13:36:35;164.10;;;33.73;;
11425;SDS011;5769;47.998;7.788;2022-10-16T13:39:12;172.13;;;34.07;;
11425;SDS011;5769;47.998;7.788;2022-10-16T13:41:42;159.40;;;33.00;;
11425;SDS011;5769;47.998;7.788;2022-10-16T13:44:12;156.07;;;31.30;;
11425;SDS011;5769;47.998;7.788;2022-10-16T13:46:42;158.73;;;34.43;;
11425;SDS011;5769;47.998;7.788;2022-10-16T13:49:12;155.00;;;33.73;;
11425;SDS011;5769;47.998;7.788;2022-10-16T13:51:40;156.37;;;34.33;;
11425;SDS011;5769;47.998;7.788;2022-10-16T13:54:09;156.83;;;34.40;;
11425;SDS011;5769;47.998;7.788;2022-10-16T13:56:38;155.43;;;34.40;;
11425;SDS011;5769;47.998;7.788;2022-10-16T13:59:06;157.20;;;34.77;;
11425;SDS011;5769;47.998;7.788;2022-10-16T14:01:49;155.53;;;33.73;;
11425;SDS011;5769;47.998;7.788;2022-10-16T14:04:19;156.27;;;34.03;;
11425;SDS011;5769;47.998;7.788;2022-10-16T14:06:46;155.47;;;33.90;;
11425;SDS011;5769;47.998;7.788;2022-10-16T14:09:17;158.90;;;33.60;;
11425;SDS011;5769;47.998;7.788;2022-10-16T14:11:51;154.97;;;33.53;;
11425;SDS011;5769;47.998;7.788;2022-10-16T14:14:21;155.17;;;34.63;;
11425;SDS011;5769;47.998;7.788;2022-10-16T14:16:48;155.33;;;33.93;;
11425;SDS011;5769;47.998;7.788;2022-10-16T14:19:18;154.07;;;34.17;;
11425;SDS011;5769;47.998;7.788;2022-10-16T14:21:47;153.93;;;34.07;;
11425;SDS011;5769;47.998;7.788;2022-10-16T14:24:22;148.20;;;33.07;;
11425;SDS011;5769;47.998;7.788;2022-10-16T14:26:53;155.63;;;33.77;;
11425;SDS011;5769;47.998;7.788;2022-10-16T14:29:21;155.43;;;34.10;;
11425;SDS011;5769;47.998;7.788;2022-10-16T14:31:55;156.63;;;33.93;;
11425;SDS011;5769;47.998;7.788;2022-10-16T14:34:27;157.60;;;33.90;;
11425;SDS011;5769;47.998;7.788;2022-10-16T14:36:57;149.10;;;33.07;;
11425;SDS011;5769;47.998;7.788;2022-10-16T14:39:27;148.50;;;32.80;;
11425;SDS011;5769;47.998;7.788;2022-10-16T14:41:56;155.10;;;33.87;;
11425;SDS011;5769;47.998;7.788;2022-10-16T14:44:26;155.63;;;34.30;;
11425;SDS011;5769;47.998;7.788;2022-10-16T14:46:57;156.10;;;34.20;;
11425;SDS011;5769;47.998;7.788;2022-10-16T14:49:24;155.90;;;33.43;;
11425;SDS011;5769;47.998;7.788;2022-10-16T14:51:53;154.70;;;34.30;;
11425;SDS011;5769;47.998;7.788;2022-10-16T14:54:19;157.77;;;34.10;;
11425;SDS011;5769;47.998;7.788;2022-10-16T14:56:47;156.20;;;33.97;;
11425;SDS011;5769;47.998;7.788;2022-10-16T14:59:19;148.07;;;32.20;;
11425;SDS011;5769;47.998;7.788;2022-10-16T15:01:50;157.27;;;34.17;;
11425;SDS011;5769;47.998;7.788;2022-10-16T15:04:17;156.60;;;34.67;;
11425;SDS011;5769;47.998;7.788;2022-10-16T15:06:43;158.20;;;33.83;;
11425;SDS011;5769;47.998;7.788;2022-10-16T15:09:10;176.87;;;34.03;;
11425;SDS011;5769;47.998;7.788;2022-10-16T15:11:37;193.67;;;35.40;;